Time;durP1;ratioP1;P1;durP2;ratioP2;P2;SDS_P1;SDS_P2;PMS_P1;PMS_P2;Temp;Humidity;BMP_temperature;BMP_pressure;BME280_temperature;BME280_humidity;BME280_pressure;Samples;Min_cycle;Max_cycle;Signal;HPM_P1;HPM_P2
2021/09/16 07:16:17;;;;;;;12.15;6.78;;;;;;;;;;5227303;23;20053;-80
2021/09/16 07:18:43;;;;;;;12.65;6.80;;;;;;;;;;4997190;28;20038;-80
2021/09/16 07:21:08;;;;;;;12.27;5.85;;;;;;;;;;4979714;28;20026;-80
2021/09/16 07:23:34;;;;;;;12.73;6.43;;;;;;;;;;4997127;28;20109;-81
2021/09/16 07:25:59;;;;;;;10.57;7.80;;;;;;;;;;4997223;28;20491;-81
2021/09/16 07:28:25;;;;;;;15.20;8.80;;;;;;;;;;4997352;28;20030;-81
2021/09/16 07:30:51;;;;;;;14.30;8.05;;;;;;;;;;4997025;28;20018;-80
2021/09/16 07:33:16;;;;;;;18.27;7.80;;;;;;;;;;4996692;28;20365;-78
2021/09/16 07:35:42;;;;;;;18.25;8.57;;;;;;;;;;4996677;28;20070;-78
2021/09/16 07:38:07;;;;;;;15.60;8.60;;;;;;;;;;4996847;28;20030;-76
2021/09/16 07:40:33;;;;;;;14.23;8.05;;;;;;;;;;4996841;28;20022;-76
2021/09/16 07:42:59;;;;;;;16.40;8.10;;;;;;;;;;4997106;28;20046;-76
2021/09/16 07:45:25;;;;;;;13.82;8.20;;;;;;;;;;4980838;28;20519;-77
2021/09/16 07:47:51;;;;;;;14.30;7.95;;;;;;;;;;4979848;28;20034;-77
2021/09/16 07:50:16;;;;;;;16.05;10.98;;;;;;;;;;4982716;28;20499;-77
2021/09/16 07:52:42;;;;;;;14.23;8.55;;;;;;;;;;4996978;28;20037;-80
2021/09/16 07:55:08;;;;;;;15.40;8.23;;;;;;;;;;4997087;28;20116;-77
2021/09/16 07:57:34;;;;;;;14.00;7.80;;;;;;;;;;4979354;28;20053;-79
2021/09/16 07:59:59;;;;;;;11.80;7.43;;;;;;;;;;4963210;28;20030;-78
2021/09/16 08:02:26;;;;;;;13.75;7.50;;;;;;;;;;4997309;28;20034;-80
2021/09/16 08:04:52;;;;;;;11.75;7.35;;;;;;;;;;4996309;28;20041;-78
2021/09/16 08:07:17;;;;;;;16.20;6.95;;;;;;;;;;4996686;28;20469;-88
2021/09/16 08:09:42;;;;;;;12.18;6.57;;;;;;;;;;4996485;28;20022;-87
2021/09/16 08:12:08;;;;;;;11.38;6.60;;;;;;;;;;4997197;28;20090;-89
2021/09/16 08:14:34;;;;;;;11.40;6.82;;;;;;;;;;4997364;28;20099;-88
2021/09/16 08:16:59;;;;;;;11.32;6.15;;;;;;;;;;4998322;28;20116;-89
2021/09/16 08:19:25;;;;;;;12.73;6.32;;;;;;;;;;4997745;28;20057;-82
2021/09/16 08:21:51;;;;;;;14.73;6.97;;;;;;;;;;4998732;28;20042;-84
2021/09/16 08:24:17;;;;;;;11.32;7.20;;;;;;;;;;4999425;28;20041;-87
2021/09/16 08:26:42;;;;;;;13.35;7.32;;;;;;;;;;4978214;28;20480;-85
2021/09/16 08:29:08;;;;;;;13.75;8.50;;;;;;;;;;4978255;28;20033;-85
2021/09/16 09:02:26;;;;;;;18.55;7.53;;;;;;;;;;4975063;28;20043;-78
2021/09/16 09:04:53;;;;;;;15.05;10.18;;;;;;;;;;4975780;28;20508;-79
2021/09/16 09:07:19;;;;;;;13.75;7.65;;;;;;;;;;4958268;28;20034;-79
2021/09/16 09:09:45;;;;;;;9.20;6.68;;;;;;;;;;4975346;28;20031;-82
2021/09/16 09:12:15;;;;;;;13.32;7.55;;;;;;;;;;4974845;28;20031;-84
2021/09/16 09:14:44;;;;;;;;;;;;;;;;;;4958323;28;20026;-78
2021/09/16 09:17:23;;;;;;;13.40;7.30;;;;;;;;;;4975507;28;19961;-84
2021/09/16 09:19:50;;;;;;;17.13;7.87;;;;;;;;;;4975343;28;20085;-84
2021/09/16 09:22:27;;;;;;;13.38;6.80;;;;;;;;;;4975418;28;20272;-80
2021/09/16 09:24:59;;;;;;;13.70;6.45;;;;;;;;;;4975110;28;20045;-81
2021/09/16 09:27:37;;;;;;;16.30;7.05;;;;;;;;;;4975237;28;20027;-79
2021/09/16 09:30:16;;;;;;;11.43;6.93;;;;;;;;;;4958309;28;20031;-80
2021/09/16 09:33:09;;;;;;;15.13;6.63;;;;;;;;;;4975354;28;20093;-81
2021/09/16 09:35:34;;;;;;;13.32;6.97;;;;;;;;;;4957688;28;20038;-78
2021/09/16 09:38:05;;;;;;;14.88;6.85;;;;;;;;;;4974882;28;20027;-78
2021/09/16 09:40:39;;;;;;;14.93;8.50;;;;;;;;;;4975197;28;20030;-77
2021/09/16 09:43:37;;;;;;;12.43;7.63;;;;;;;;;;4975088;28;20034;-80
2021/09/16 09:46:14;;;;;;;17.23;8.80;;;;;;;;;;4975066;28;20469;-78
2021/09/16 09:49:01;;;;;;;15.38;8.38;;;;;;;;;;4975648;28;20073;-84
2021/09/16 09:51:50;;;;;;;15.45;8.38;;;;;;;;;;4975468;28;20528;-84
2021/09/16 09:54:37;;;;;;;15.50;8.95;;;;;;;;;;4975748;28;20031;-78
2021/09/16 09:57:08;;;;;;;13.60;9.10;;;;;;;;;;4975384;28;20043;-85
2021/09/16 09:59:59;;;;;;;15.43;9.32;;;;;;;;;;4975565;28;20023;-82
2021/09/16 10:02:46;;;;;;;14.88;9.55;;;;;;;;;;4957236;28;20051;-88
2021/09/16 10:05:32;;;;;;;12.27;9.57;;;;;;;;;;4975038;28;20035;-86
2021/09/16 10:08:10;;;;;;;14.63;9.20;;;;;;;;;;4974878;28;20030;-80
2021/09/16 10:10:41;;;;;;;18.15;9.40;;;;;;;;;;4974622;28;20027;-78
2021/09/16 10:13:07;;;;;;;17.70;10.10;;;;;;;;;;4974612;28;20484;-78
2021/09/16 10:15:33;;;;;;;15.30;9.68;;;;;;;;;;4974594;28;20393;-78
2021/09/16 10:30:55;;;;;;;15.52;10.45;;;;;;;;;;5097987;23;20424;-82
2021/09/16 10:33:23;;;;;;;16.02;11.02;;;;;;;;;;4999805;28;20056;-80
2021/09/16 10:35:58;;;;;;;16.90;10.73;;;;;;;;;;5017375;28;20038;-80
2021/09/16 10:38:35;;;;;;;15.43;10.18;;;;;;;;;;5017232;28;20034;-83
2021/09/16 10:41:21;;;;;;;23.60;14.73;;;;;;;;;;5017202;28;20040;-79
2021/09/16 10:43:59;;;;;;;16.73;10.50;;;;;;;;;;5017271;28;20025;-79
2021/09/16 10:46:43;;;;;;;13.48;10.30;;;;;;;;;;5017273;28;20064;-79
2021/09/16 10:49:21;;;;;;;15.25;11.48;;;;;;;;;;5016835;28;20377;-79
2021/09/16 10:51:50;;;;;;;15.35;10.35;;;;;;;;;;4999448;28;20451;-79
2021/09/16 10:54:27;;;;;;;16.77;10.57;;;;;;;;;;5016976;28;20026;-81
2021/09/16 10:57:31;;;;;;;18.83;10.73;;;;;;;;;;5017415;28;20029;-80
2021/09/16 10:59:56;;;;;;;17.67;10.23;;;;;;;;;;5016942;28;20030;-78
2021/09/16 11:02:24;;;;;;;14.65;10.45;;;;;;;;;;5016841;28;20032;-78
2021/09/16 11:04:59;;;;;;;18.05;11.15;;;;;;;;;;5016811;28;20057;-78
2021/09/16 11:07:39;;;;;;;14.70;11.57;;;;;;;;;;5016573;28;20040;-78
2021/09/16 11:10:17;;;;;;;16.17;11.48;;;;;;;;;;4999316;28;20026;-78
2021/09/16 11:13:06;;;;;;;16.90;12.43;;;;;;;;;;5016706;28;20021;-78
2021/09/16 11:15:39;;;;;;;17.55;11.63;;;;;;;;;;5016662;28;20032;-78
2021/09/16 11:18:07;;;;;;;17.77;11.10;;;;;;;;;;5016413;28;20034;-78
2021/09/16 11:20:34;;;;;;;18.85;12.25;;;;;;;;;;5016574;28;20033;-78
2021/09/16 11:23:01;;;;;;;18.60;11.52;;;;;;;;;;5016337;28;20028;-78
2021/09/16 11:25:37;;;;;;;14.20;11.00;;;;;;;;;;5016538;28;20109;-78
2021/09/16 11:28:05;;;;;;;19.85;12.07;;;;;;;;;;5016343;28;20484;-79
2021/09/16 11:30:33;;;;;;;16.73;11.73;;;;;;;;;;4998908;28;20124;-79
2021/09/16 11:33:04;;;;;;;17.05;10.95;;;;;;;;;;4998469;28;20030;-80
2021/09/16 11:35:30;;;;;;;16.50;11.88;;;;;;;;;;5015414;28;20029;-79
2021/09/16 11:37:56;;;;;;;18.70;12.63;;;;;;;;;;5015765;28;20541;-78
2021/09/16 11:40:24;;;;;;;17.65;13.98;;;;;;;;;;5015842;28;20030;-79
2021/09/16 11:42:59;;;;;;;24.13;14.40;;;;;;;;;;5016097;28;20030;-80
2021/09/16 11:45:33;;;;;;;19.67;14.82;;;;;;;;;;5015955;28;20053;-79
2021/09/16 16:26:12;;;;;;;18.65;12.10;;;;;;;;;;4972312;28;20129;-87
2021/09/16 16:28:37;;;;;;;21.10;12.85;;;;;;;;;;4976443;28;20038;-85
2021/09/16 16:31:03;;;;;;;17.65;12.35;;;;;;;;;;4976225;28;20031;-85
2021/09/16 16:33:28;;;;;;;19.33;11.95;;;;;;;;;;4976069;28;20022;-78
2021/09/16 16:35:54;;;;;;;17.60;12.80;;;;;;;;;;4975959;28;20065;-77
2021/09/16 16:38:20;;;;;;;19.13;14.05;;;;;;;;;;4976537;28;20062;-79
2021/09/16 16:40:47;;;;;;;19.45;13.00;;;;;;;;;;4976038;28;20019;-81
2021/09/16 16:43:13;;;;;;;17.77;12.65;;;;;;;;;;4992344;28;20026;-79
2021/09/16 16:45:39;;;;;;;15.23;12.32;;;;;;;;;;4995304;28;20041;-78
2021/09/16 16:48:04;;;;;;;21.67;12.52;;;;;;;;;;4995422;28;20033;-78
2021/09/16 16:50:30;;;;;;;19.50;12.88;;;;;;;;;;4986688;28;20101;-84
2021/09/16 16:52:56;;;;;;;20.85;12.43;;;;;;;;;;4984570;28;20030;-85
2021/09/16 16:55:21;;;;;;;22.98;12.82;;;;;;;;;;4985949;28;20022;-85
2021/09/16 16:57:46;;;;;;;18.08;11.90;;;;;;;;;;4983644;28;20441;-77
2021/09/16 17:00:12;;;;;;;16.52;12.10;;;;;;;;;;4985031;28;20110;-77
2021/09/16 17:02:38;;;;;;;19.08;12.15;;;;;;;;;;4993748;28;20081;-82
2021/09/16 17:05:04;;;;;;;20.73;12.85;;;;;;;;;;4986549;28;20038;-81
2021/09/16 17:07:29;;;;;;;20.77;13.10;;;;;;;;;;4976183;28;20071;-81
2021/09/16 17:09:55;;;;;;;18.00;12.52;;;;;;;;;;4977930;28;20026;-78
2021/09/16 17:12:20;;;;;;;18.33;12.38;;;;;;;;;;4984520;28;20046;-81
2021/09/16 17:14:46;;;;;;;27.45;13.43;;;;;;;;;;4984047;28;20381;-81
2021/09/16 17:17:12;;;;;;;20.48;13.05;;;;;;;;;;4985579;28;20057;-77
2021/09/16 17:19:37;;;;;;;21.00;12.90;;;;;;;;;;4977776;28;20026;-82
2021/09/16 17:22:04;;;;;;;21.80;12.50;;;;;;;;;;4975351;28;20030;-81
2021/09/16 17:24:29;;;;;;;23.88;12.98;;;;;;;;;;4975335;28;20026;-82
2021/09/16 17:26:55;;;;;;;18.00;12.40;;;;;;;;;;4987220;28;20484;-78
2021/09/16 17:29:21;;;;;;;19.85;13.02;;;;;;;;;;4994463;28;20050;-84
2021/09/16 17:31:46;;;;;;;20.80;12.95;;;;;;;;;;4976970;28;20037;-78
2021/09/16 17:34:12;;;;;;;22.85;13.15;;;;;;;;;;4993542;28;20516;-78
2021/09/16 17:36:38;;;;;;;22.55;13.95;;;;;;;;;;4994463;28;20346;-78
2021/09/16 17:39:03;;;;;;;17.80;13.38;;;;;;;;;;5002306;28;20125;-78
2021/09/16 17:41:29;;;;;;;22.75;13.00;;;;;;;;;;5013946;28;20091;-78
